Time;durP1;ratioP1;P1;durP2;ratioP2;P2;SDS_P1;SDS_P2;PMS_P1;PMS_P2;Temp;Humidity;BMP_temperature;BMP_pressure;BME280_temperature;BME280_humidity;BME280_pressure;Samples;Min_cycle;Max_cycle;Signal;HPM_P1;HPM_P2
2022/12/18 00:00:50;;;;;;;51.87;29.07;;;-5.30;99.90;;;;;;5114338;28;21033;-58
2022/12/18 00:03:17;;;;;;;44.77;27.47;;;-5.30;99.90;;;;;;5114616;28;20453;-57
2022/12/18 00:05:48;;;;;;;49.27;28.90;;;-5.40;99.90;;;;;;5114291;28;20439;-57
2022/12/18 00:08:16;;;;;;;46.97;28.33;;;-5.40;99.90;;;;;;5114521;28;20460;-57
2022/12/18 00:10:43;;;;;;;42.53;26.33;;;-5.50;99.90;;;;;;5114231;28;20473;-58
2022/12/18 00:13:13;;;;;;;50.40;29.47;;;-5.40;99.90;;;;;;5114242;28;20450;-58
2022/12/18 00:15:40;;;;;;;49.27;30.20;;;-5.20;99.90;;;;;;5114399;28;20474;-58
2022/12/18 00:18:08;;;;;;;51.60;29.60;;;-5.20;99.90;;;;;;5114151;28;20500;-57
2022/12/18 00:20:38;;;;;;;57.60;28.83;;;-5.10;99.90;;;;;;5113644;28;20502;-57
2022/12/18 00:23:05;;;;;;;48.40;28.20;;;-5.10;99.90;;;;;;5114390;28;20447;-57
2022/12/18 00:25:34;;;;;;;52.30;26.47;;;-5.10;99.90;;;;;;5114074;28;20936;-57
2022/12/18 00:28:01;;;;;;;46.50;28.33;;;-5.10;99.90;;;;;;5113955;28;20933;-58
2022/12/18 00:30:30;;;;;;;46.87;27.33;;;-5.20;99.90;;;;;;5113867;28;20515;-57
2022/12/18 00:32:58;;;;;;;43.00;28.33;;;-5.40;99.90;;;;;;5114015;28;20446;-57
2022/12/18 00:35:26;;;;;;;46.97;27.93;;;-5.40;99.90;;;;;;5114012;28;20537;-58
2022/12/18 00:37:53;;;;;;;54.97;31.37;;;-5.20;99.90;;;;;;5114251;28;20481;-58
2022/12/18 00:40:21;;;;;;;44.70;28.97;;;-5.30;99.90;;;;;;5113579;28;20521;-57
2022/12/18 00:42:56;;;;;;;41.63;26.77;;;-5.30;99.90;;;;;;5113722;28;20454;-57
2022/12/18 00:45:26;;;;;;;53.00;30.80;;;-5.20;99.90;;;;;;5114214;28;20488;-57
2022/12/18 00:47:55;;;;;;;49.87;27.27;;;-5.30;99.90;;;;;;5113997;28;20418;-57
2022/12/18 00:50:24;;;;;;;47.77;28.63;;;-5.40;99.90;;;;;;5113673;28;20471;-58
2022/12/18 00:52:52;;;;;;;56.47;29.80;;;-5.50;99.90;;;;;;5113713;28;20542;-58
2022/12/18 00:55:19;;;;;;;46.17;27.20;;;-5.60;99.90;;;;;;5113708;28;20477;-58
2022/12/18 00:57:46;;;;;;;49.60;30.30;;;-5.60;99.90;;;;;;5113869;28;20478;-58
2022/12/18 01:00:16;;;;;;;50.77;29.87;;;-5.70;99.90;;;;;;5114244;28;20823;-58
2022/12/18 01:02:43;;;;;;;46.73;28.70;;;-5.70;99.90;;;;;;5113565;28;20450;-57
2022/12/18 01:05:16;;;;;;;48.00;28.90;;;-5.70;99.90;;;;;;5113985;28;20829;-58
2022/12/18 01:07:44;;;;;;;41.13;27.10;;;-5.70;99.90;;;;;;5113559;28;20549;-58
2022/12/18 01:10:13;;;;;;;50.67;32.80;;;-5.60;99.90;;;;;;5113464;28;20498;-58
2022/12/18 01:12:40;;;;;;;49.07;27.80;;;-5.50;99.90;;;;;;5113408;28;20499;-58
2022/12/18 01:15:09;;;;;;;52.77;32.00;;;-5.50;99.90;;;;;;5113952;28;20450;-58
2022/12/18 01:17:36;;;;;;;52.93;29.97;;;-5.60;99.90;;;;;;5113812;28;20880;-57
2022/12/18 01:20:04;;;;;;;48.03;29.37;;;-5.50;99.90;;;;;;5113367;28;20553;-57
2022/12/18 01:22:36;;;;;;;58.57;31.53;;;-5.50;99.90;;;;;;5113777;28;20849;-58
2022/12/18 01:25:05;;;;;;;54.97;32.77;;;-5.60;99.90;;;;;;5113706;28;20834;-57
2022/12/18 01:27:33;;;;;;;52.93;29.13;;;-5.40;99.90;;;;;;5113597;28;20808;-57
2022/12/18 01:30:01;;;;;;;50.97;27.60;;;-5.40;99.90;;;;;;5113284;28;20972;-58
2022/12/18 01:32:31;;;;;;;41.70;27.33;;;-5.40;99.90;;;;;;5115195;28;20442;-57
2022/12/18 01:34:58;;;;;;;45.10;26.27;;;-5.40;99.90;;;;;;5117268;28;20489;-58
2022/12/18 01:37:26;;;;;;;45.43;26.87;;;-5.40;99.90;;;;;;5117488;28;20514;-58
2022/12/18 01:39:55;;;;;;;54.23;28.80;;;-5.30;99.90;;;;;;5116876;28;20482;-58
2022/12/18 01:42:23;;;;;;;53.17;30.03;;;-5.40;99.90;;;;;;5117344;28;20442;-58
2022/12/18 01:45:04;;;;;;;43.40;28.17;;;-5.30;99.90;;;;;;5117350;28;20442;-57
2022/12/18 01:47:37;;;;;;;55.33;27.30;;;-5.20;99.90;;;;;;5117196;28;20764;-57
2022/12/18 01:50:09;;;;;;;52.07;29.10;;;-5.30;99.90;;;;;;5117231;28;20462;-58
2022/12/18 01:52:41;;;;;;;42.73;28.13;;;-5.40;99.90;;;;;;5117117;28;20462;-58
2022/12/18 01:55:13;;;;;;;43.70;26.47;;;-5.40;99.90;;;;;;5117267;28;20502;-58
2022/12/18 01:57:41;;;;;;;48.83;27.63;;;-5.30;99.90;;;;;;5116668;28;20522;-58
2022/12/18 02:00:13;;;;;;;49.90;25.20;;;-5.30;99.90;;;;;;5117093;28;20536;-57
2022/12/18 02:02:41;;;;;;;46.40;28.60;;;-5.30;99.90;;;;;;5116917;28;20427;-57
2022/12/18 02:05:10;;;;;;;46.80;30.33;;;-5.20;99.90;;;;;;5116928;28;20937;-58
2022/12/18 02:07:46;;;;;;;40.40;28.53;;;-5.30;99.90;;;;;;5116765;28;20968;-58
2022/12/18 02:10:21;;;;;;;43.23;25.43;;;-5.40;99.90;;;;;;5116801;28;20486;-58
2022/12/18 02:12:53;;;;;;;47.00;29.03;;;-5.50;99.90;;;;;;5116747;28;20426;-58
2022/12/18 02:15:26;;;;;;;41.77;25.20;;;-5.40;99.90;;;;;;5116532;28;20541;-58
2022/12/18 02:17:57;;;;;;;46.57;26.90;;;-5.50;99.90;;;;;;5116436;28;20463;-58
2022/12/18 02:20:29;;;;;;;45.57;25.97;;;-5.40;99.90;;;;;;5116485;28;20463;-58
2022/12/18 02:23:07;;;;;;;40.20;25.57;;;-5.20;99.90;;;;;;5116397;28;20523;-57
2022/12/18 02:26:01;;;;;;;49.70;27.47;;;-5.20;99.90;;;;;;5116291;28;20476;-58
2022/12/18 02:28:32;;;;;;;44.00;28.87;;;-5.20;99.90;;;;;;5116383;28;20419;-57
2022/12/18 02:31:03;;;;;;;45.40;25.90;;;-5.20;99.90;;;;;;5116368;28;20494;-58
2022/12/18 02:33:33;;;;;;;46.60;24.43;;;-5.20;99.90;;;;;;5116283;28;20460;-57
2022/12/18 02:36:02;;;;;;;48.30;24.67;;;-5.20;99.90;;;;;;5115947;28;20447;-57
2022/12/18 02:38:31;;;;;;;41.77;25.43;;;-5.20;99.90;;;;;;5116470;28;20478;-58
2022/12/18 02:41:01;;;;;;;55.00;27.27;;;-5.10;99.90;;;;;;5116139;28;20458;-58
2022/12/18 02:43:33;;;;;;;43.10;24.33;;;-5.20;99.90;;;;;;5115907;28;20446;-57
2022/12/18 02:46:21;;;;;;;46.53;25.57;;;-5.10;99.90;;;;;;5115864;28;20901;-59
2022/12/18 02:48:49;;;;;;;45.50;23.13;;;-5.10;99.90;;;;;;5115772;28;20459;-57
2022/12/18 02:51:25;;;;;;;36.63;24.13;;;-5.10;99.90;;;;;;5115691;28;21027;-57
2022/12/18 02:53:59;;;;;;;41.27;25.30;;;-5.20;99.90;;;;;;5116068;28;20961;-57
2022/12/18 02:56:31;;;;;;;39.43;24.97;;;-5.30;99.90;;;;;;5115910;28;20861;-57
2022/12/18 02:59:03;;;;;;;46.40;25.60;;;-5.30;99.90;;;;;;5115798;28;20434;-57
2022/12/18 03:01:37;;;;;;;54.20;29.37;;;-5.20;99.90;;;;;;5115920;28;20475;-57
2022/12/18 03:04:10;;;;;;;42.97;26.30;;;-5.30;99.90;;;;;;5115925;28;20498;-58
2022/12/18 03:06:42;;;;;;;45.63;25.70;;;-5.30;99.90;;;;;;5115345;28;20423;-57
2022/12/18 03:09:12;;;;;;;47.37;25.20;;;-5.30;99.90;;;;;;5115362;28;20423;-58
2022/12/18 03:14:35;;;;;;;41.73;24.93;;;-5.30;99.90;;;;;;5115517;28;20556;-57
2022/12/18 03:17:04;;;;;;;38.30;26.30;;;-5.30;99.90;;;;;;5115189;28;20502;-57
2022/12/18 03:19:34;;;;;;;44.40;25.77;;;-5.40;99.90;;;;;;5115041;28;20501;-57
2022/12/18 03:22:04;;;;;;;46.40;26.47;;;-5.40;99.90;;;;;;5115262;28;20474;-57
2022/12/18 03:24:34;;;;;;;50.03;27.07;;;-5.50;99.90;;;;;;5115065;28;20458;-58
2022/12/18 03:27:06;;;;;;;45.67;25.10;;;-5.50;99.90;;;;;;5115264;28;20998;-58
2022/12/18 03:29:39;;;;;;;38.03;23.00;;;-5.50;99.90;;;;;;5114909;28;20558;-57
2022/12/18 03:32:10;;;;;;;37.53;25.17;;;-5.40;99.90;;;;;;5115239;28;20511;-57
2022/12/18 03:34:42;;;;;;;46.63;27.67;;;-5.40;99.90;;;;;;5114833;28;20427;-57
2022/12/18 03:37:09;;;;;;;47.87;27.20;;;-5.40;99.90;;;;;;5114829;28;20493;-57
2022/12/18 03:39:37;;;;;;;36.93;24.53;;;-5.60;99.90;;;;;;5114626;28;20527;-58
2022/12/18 03:42:11;;;;;;;49.87;24.07;;;-5.50;99.90;;;;;;5114789;28;20442;-58
2022/12/18 03:44:48;;;;;;;38.40;23.17;;;-5.50;99.90;;;;;;5115067;28;20449;-57
2022/12/18 03:47:18;;;;;;;44.00;26.73;;;-5.50;99.90;;;;;;5115116;28;20426;-57
2022/12/18 03:49:49;;;;;;;34.67;22.03;;;-5.50;99.90;;;;;;5114799;28;20466;-57
2022/12/18 03:52:22;;;;;;;34.70;21.77;;;-5.50;99.90;;;;;;5114517;28;20423;-57
2022/12/18 03:54:50;;;;;;;37.97;20.93;;;-5.50;99.90;;;;;;5114254;28;20835;-57
2022/12/18 03:57:22;;;;;;;38.90;22.53;;;-5.50;99.90;;;;;;5114344;28;20521;-57
2022/12/18 03:59:54;;;;;;;32.67;20.97;;;-5.60;99.90;;;;;;5114388;28;20546;-58
2022/12/18 04:02:23;;;;;;;34.03;20.27;;;-5.70;99.90;;;;;;5114574;28;20487;-58
2022/12/18 04:04:53;;;;;;;35.73;21.23;;;-5.70;99.90;;;;;;5114705;28;20478;-57
2022/12/18 04:07:22;;;;;;;37.77;22.20;;;-5.70;99.90;;;;;;5114527;28;20446;-58
2022/12/18 04:09:50;;;;;;;41.20;23.00;;;-5.70;99.90;;;;;;5114816;28;20462;-58
2022/12/18 04:12:21;;;;;;;29.60;20.00;;;;;;;;;;5114131;28;20976;-57
2022/12/18 04:14:48;;;;;;;33.27;20.57;;;-5.80;99.90;;;;;;5114235;28;20434;-57
2022/12/18 04:17:16;;;;;;;28.67;19.50;;;-5.80;99.90;;;;;;5114027;28;20518;-58
2022/12/18 04:19:43;;;;;;;29.17;20.70;;;-5.90;99.90;;;;;;5114440;28;20467;-58
2022/12/18 04:22:11;;;;;;;30.23;20.30;;;-5.90;99.90;;;;;;5114313;28;20511;-58
2022/12/18 04:24:38;;;;;;;30.83;20.00;;;-6.00;99.90;;;;;;5114436;28;20485;-58
2022/12/18 04:27:06;;;;;;;38.40;21.13;;;-6.00;99.90;;;;;;5113897;28;20442;-57
2022/12/18 04:29:34;;;;;;;34.27;20.60;;;-6.00;99.90;;;;;;5113967;28;20474;-58
2022/12/18 04:32:04;;;;;;;28.43;19.30;;;-6.00;99.90;;;;;;5113881;28;20442;-57
2022/12/18 04:34:31;;;;;;;29.67;18.17;;;-5.90;99.90;;;;;;5113955;28;20439;-57
2022/12/18 04:36:58;;;;;;;29.10;19.30;;;-6.00;99.90;;;;;;5113891;28;20513;-58
2022/12/18 04:39:26;;;;;;;32.13;20.10;;;-6.00;99.90;;;;;;5113865;28;20908;-58
2022/12/18 04:41:53;;;;;;;25.90;18.67;;;-6.00;99.90;;;;;;5114080;28;20474;-57
2022/12/18 04:44:20;;;;;;;34.80;19.83;;;-6.10;99.90;;;;;;5113803;28;21002;-57
2022/12/18 04:46:49;;;;;;;37.03;21.40;;;-6.10;99.90;;;;;;5113704;28;20953;-57
2022/12/18 04:49:16;;;;;;;31.00;19.77;;;-6.20;99.90;;;;;;5113673;28;20512;-57
2022/12/18 04:51:43;;;;;;;28.70;20.13;;;-6.30;99.90;;;;;;5113650;28;20446;-57
2022/12/18 04:54:11;;;;;;;34.17;19.53;;;-6.20;99.90;;;;;;5113669;28;20443;-57
2022/12/18 04:56:38;;;;;;;37.77;21.63;;;-6.30;99.90;;;;;;5113677;28;20485;-58
2022/12/18 04:59:05;;;;;;;29.47;20.90;;;-6.30;99.90;;;;;;5113490;28;20483;-57
2022/12/18 05:01:36;;;;;;;35.67;22.90;;;-6.30;99.90;;;;;;5113681;28;20940;-58
2022/12/18 05:04:05;;;;;;;37.63;23.10;;;-6.20;99.90;;;;;;5113651;28;20488;-57
2022/12/18 05:06:32;;;;;;;32.33;21.00;;;-6.30;99.90;;;;;;5115521;28;20479;-57
2022/12/18 05:09:00;;;;;;;30.30;19.70;;;-6.50;99.90;;;;;;5118033;28;20474;-57
2022/12/18 05:11:27;;;;;;;29.97;20.60;;;-6.40;99.90;;;;;;5117987;28;20454;-57
2022/12/18 05:13:57;;;;;;;35.17;20.23;;;-6.40;99.90;;;;;;5117863;28;20557;-57
2022/12/18 05:16:24;;;;;;;34.40;21.80;;;-6.40;99.90;;;;;;5117929;28;20434;-57
2022/12/18 05:18:52;;;;;;;32.73;21.50;;;-6.40;99.90;;;;;;5117754;28;20513;-57
2022/12/18 05:21:20;;;;;;;34.77;19.87;;;-6.50;99.90;;;;;;5117870;28;20538;-58
2022/12/18 05:23:47;;;;;;;30.70;20.57;;;-6.40;99.90;;;;;;5117361;28;20450;-57
2022/12/18 05:26:18;;;;;;;37.43;19.50;;;-6.50;99.90;;;;;;5117453;28;20473;-58
2022/12/18 05:28:45;;;;;;;25.53;18.37;;;-6.40;99.90;;;;;;5117342;28;20920;-57
2022/12/18 05:31:13;;;;;;;32.20;19.17;;;-6.40;99.90;;;;;;5117231;28;20467;-57
2022/12/18 05:33:40;;;;;;;30.27;20.07;;;-6.50;99.90;;;;;;5117301;28;20948;-57
2022/12/18 05:36:09;;;;;;;35.23;19.60;;;-6.50;99.90;;;;;;5117596;28;20446;-58
2022/12/18 05:38:38;;;;;;;30.93;20.83;;;-6.40;99.90;;;;;;5116478;28;20996;-58
2022/12/18 05:41:07;;;;;;;28.77;20.63;;;-6.40;99.90;;;;;;5117666;28;20859;-58
2022/12/18 05:43:36;;;;;;;30.33;21.20;;;-6.20;99.90;;;;;;5117084;28;20438;-57
2022/12/18 05:46:06;;;;;;;31.90;20.00;;;-6.30;99.90;;;;;;5117060;28;20450;-58
2022/12/18 05:48:33;;;;;;;34.97;20.53;;;-6.30;99.90;;;;;;5116995;28;20505;-58
2022/12/18 05:51:07;;;;;;;33.93;20.33;;;-6.40;99.90;;;;;;5117244;28;20502;-57
2022/12/18 05:53:34;;;;;;;34.87;20.80;;;-6.40;99.90;;;;;;5116947;28;20893;-58
2022/12/18 05:56:05;;;;;;;35.43;22.07;;;-6.50;99.90;;;;;;5116908;28;20537;-57
2022/12/18 05:58:33;;;;;;;32.93;21.23;;;-6.50;99.90;;;;;;5117105;28;20547;-58
2022/12/18 06:01:08;;;;;;;30.37;20.63;;;-6.50;99.90;;;;;;5116764;28;20465;-57
2022/12/18 06:03:36;;;;;;;30.20;20.07;;;-6.60;99.90;;;;;;5116779;28;20434;-57
2022/12/18 06:06:03;;;;;;;31.60;20.87;;;-6.70;99.90;;;;;;5116646;28;20936;-57
2022/12/18 06:08:30;;;;;;;35.23;21.00;;;-6.70;99.90;;;;;;5116623;28;20850;-57
2022/12/18 06:10:58;;;;;;;29.10;19.10;;;-6.70;99.90;;;;;;5116845;28;21030;-57
2022/12/18 06:13:26;;;;;;;31.80;20.27;;;-6.70;99.90;;;;;;5116820;28;20451;-57
2022/12/18 06:15:54;;;;;;;31.07;20.50;;;;;;;;;;5116543;28;21045;-57
2022/12/18 06:18:21;;;;;;;31.80;21.20;;;-6.60;99.90;;;;;;5115684;28;20512;-57
2022/12/18 06:20:56;;;;;;;35.03;21.30;;;-6.80;99.90;;;;;;5116414;28;20558;-57
2022/12/18 06:23:24;;;;;;;34.60;20.80;;;-6.80;99.90;;;;;;5116461;28;20426;-57
2022/12/18 06:25:51;;;;;;;39.60;21.83;;;-6.80;99.90;;;;;;5116691;28;20943;-57
2022/12/18 06:28:18;;;;;;;27.47;19.77;;;-6.70;99.90;;;;;;5116710;28;20472;-57
2022/12/18 06:30:52;;;;;;;31.23;21.10;;;-6.80;99.90;;;;;;5116458;28;20494;-57
2022/12/18 06:33:20;;;;;;;30.03;20.50;;;-6.80;99.90;;;;;;5116449;28;20446;-57
2022/12/18 06:35:47;;;;;;;34.13;21.80;;;-6.70;99.90;;;;;;5116373;28;20478;-57
2022/12/18 06:38:14;;;;;;;27.87;19.30;;;-6.70;99.90;;;;;;5116313;28;20486;-57
2022/12/18 06:40:42;;;;;;;29.87;18.73;;;-6.70;99.90;;;;;;5115927;28;20510;-57
2022/12/18 06:43:09;;;;;;;40.33;20.10;;;-6.70;99.90;;;;;;5116086;28;20451;-57
2022/12/18 06:45:36;;;;;;;30.67;19.67;;;-6.70;99.90;;;;;;5115986;28;20427;-57
2022/12/18 06:48:05;;;;;;;28.80;18.63;;;-6.70;99.90;;;;;;5116119;28;20453;-57
2022/12/18 06:50:32;;;;;;;28.80;18.40;;;-6.70;99.90;;;;;;5115794;28;20465;-57
2022/12/18 06:53:00;;;;;;;35.53;21.77;;;-6.60;99.90;;;;;;5115981;28;20527;-57
2022/12/18 06:55:27;;;;;;;33.37;20.50;;;-6.60;99.90;;;;;;5116137;28;20474;-57
2022/12/18 06:57:54;;;;;;;37.33;19.27;;;-6.70;99.90;;;;;;5115789;28;20528;-58
2022/12/18 07:00:22;;;;;;;31.40;19.03;;;-6.80;99.90;;;;;;5115634;28;20462;-58
2022/12/18 07:02:49;;;;;;;28.10;17.77;;;-6.70;99.90;;;;;;5115809;28;20492;-58
2022/12/18 07:05:20;;;;;;;27.23;16.83;;;-6.70;99.90;;;;;;5115945;28;20450;-58
2022/12/18 07:07:48;;;;;;;30.13;19.80;;;-6.60;99.90;;;;;;5115575;28;20454;-57
2022/12/18 07:10:15;;;;;;;31.20;19.00;;;-6.70;99.90;;;;;;5115337;28;20478;-57
2022/12/18 07:12:42;;;;;;;34.23;18.03;;;-6.80;99.90;;;;;;5115304;28;20463;-57
2022/12/18 07:15:10;;;;;;;39.53;19.90;;;-6.80;99.90;;;;;;5115710;28;20446;-58
2022/12/18 07:17:38;;;;;;;27.03;18.40;;;-6.80;99.90;;;;;;5115224;28;20450;-58
2022/12/18 07:20:06;;;;;;;29.23;18.03;;;-6.80;99.90;;;;;;5115362;28;20528;-58
2022/12/18 07:22:34;;;;;;;26.50;19.30;;;-6.80;99.90;;;;;;5115387;28;20450;-58
2022/12/18 07:25:02;;;;;;;30.57;19.30;;;-6.60;99.90;;;;;;5115119;28;20539;-57
2022/12/18 07:27:29;;;;;;;27.13;18.23;;;-6.40;99.90;;;;;;5115040;28;20995;-57
2022/12/18 07:29:57;;;;;;;27.00;19.20;;;-6.40;99.90;;;;;;5113944;28;20960;-57
2022/12/18 07:32:24;;;;;;;32.30;18.73;;;-6.50;99.90;;;;;;5115075;28;20453;-58
2022/12/18 07:34:51;;;;;;;24.30;17.70;;;-6.50;99.90;;;;;;5114932;28;20979;-58
2022/12/18 07:37:19;;;;;;;32.43;19.10;;;-6.40;99.90;;;;;;5115126;28;20489;-57
2022/12/18 07:39:48;;;;;;;32.77;21.17;;;-6.40;99.90;;;;;;5113441;28;21064;-57
2022/12/18 07:42:33;;;;;;;31.80;19.43;;;-6.40;99.90;;;;;;5114699;28;20478;-58
2022/12/18 07:45:01;;;;;;;35.50;19.07;;;-6.40;99.90;;;;;;5115000;28;20458;-58
2022/12/18 07:47:31;;;;;;;38.40;19.40;;;-6.40;99.90;;;;;;5114883;28;20466;-58
2022/12/18 07:49:58;;;;;;;32.73;20.00;;;-6.30;99.90;;;;;;5115184;28;20477;-57
2022/12/18 07:52:26;;;;;;;29.40;18.87;;;-6.30;99.90;;;;;;5114529;28;20442;-56
2022/12/18 07:54:55;;;;;;;38.20;20.60;;;-6.30;99.90;;;;;;5114977;28;20451;-57
2022/12/18 07:57:22;;;;;;;31.10;18.80;;;-6.20;99.90;;;;;;5114736;28;20856;-57
2022/12/18 07:59:50;;;;;;;31.60;19.63;;;-6.30;99.90;;;;;;5114257;28;20490;-57
2022/12/18 08:02:17;;;;;;;30.23;18.67;;;-6.20;99.90;;;;;;5114722;28;20542;-57
2022/12/18 08:04:45;;;;;;;31.63;19.27;;;-6.20;99.90;;;;;;5114365;28;20454;-57
2022/12/18 08:07:12;;;;;;;37.07;19.97;;;-6.20;99.90;;;;;;5114434;28;20454;-58
2022/12/18 08:09:39;;;;;;;33.20;20.73;;;-6.20;99.90;;;;;;5114594;28;20475;-58
2022/12/18 08:12:08;;;;;;;28.23;18.07;;;-6.20;99.90;;;;;;5114170;28;20446;-58
2022/12/18 08:14:35;;;;;;;32.17;20.07;;;-6.10;99.90;;;;;;5114562;28;20446;-57
2022/12/18 08:17:03;;;;;;;27.93;19.00;;;-6.20;99.90;;;;;;5114109;28;20850;-58
2022/12/18 08:19:30;;;;;;;30.23;19.53;;;-6.10;99.90;;;;;;5114267;28;20487;-58
2022/12/18 08:21:57;;;;;;;30.33;21.20;;;-6.00;99.90;;;;;;5114408;28;20521;-58
2022/12/18 08:24:25;;;;;;;33.37;21.30;;;-6.00;99.90;;;;;;5114041;28;20446;-58
2022/12/18 08:26:52;;;;;;;31.73;19.00;;;-6.00;99.90;;;;;;5114276;28;20477;-57
2022/12/18 08:29:21;;;;;;;26.53;18.83;;;-6.00;99.90;;;;;;5114289;28;20458;-57
2022/12/18 08:31:48;;;;;;;37.07;21.80;;;-5.90;99.90;;;;;;5113904;28;20810;-57
2022/12/18 08:34:16;;;;;;;34.20;21.90;;;-5.70;99.90;;;;;;5113997;28;20446;-58
2022/12/18 08:36:43;;;;;;;31.43;20.10;;;-5.80;99.90;;;;;;5114062;28;20886;-58
2022/12/18 08:39:10;;;;;;;28.57;18.70;;;-5.80;99.90;;;;;;5113694;28;20518;-58
2022/12/18 08:41:38;;;;;;;35.07;21.17;;;-5.80;99.90;;;;;;5113775;28;20434;-58
2022/12/18 08:46:51;;;;;;;28.20;20.40;;;-5.70;99.90;;;;;;5113891;28;20402;-58
2022/12/18 08:49:18;;;;;;;36.30;22.80;;;-5.80;99.90;;;;;;5113640;28;20459;-58
2022/12/18 08:51:46;;;;;;;33.07;20.40;;;-5.70;99.90;;;;;;5113497;28;20500;-58
2022/12/18 08:54:14;;;;;;;41.43;20.93;;;-5.70;99.90;;;;;;5114133;28;20503;-58
2022/12/18 08:56:41;;;;;;;30.43;19.90;;;-5.60;99.90;;;;;;5113834;28;20450;-58
2022/12/18 08:59:09;;;;;;;32.03;21.20;;;-5.40;99.90;;;;;;5113557;28;20509;-57
2022/12/18 09:01:36;;;;;;;35.17;20.63;;;-5.40;99.90;;;;;;5113869;28;20442;-57
2022/12/18 09:04:05;;;;;;;33.47;21.33;;;-5.40;99.90;;;;;;5113600;28;20439;-57
2022/12/18 09:06:33;;;;;;;42.87;24.70;;;-5.40;99.90;;;;;;5113810;28;20948;-57
2022/12/18 09:09:00;;;;;;;34.07;20.83;;;-5.20;99.90;;;;;;5113487;28;20449;-57
2022/12/18 09:11:29;;;;;;;34.10;23.43;;;-5.10;99.90;;;;;;5113452;28;20496;-58
2022/12/18 09:13:57;;;;;;;38.53;24.50;;;-5.00;99.90;;;;;;5113791;28;20496;-57
2022/12/18 09:16:26;;;;;;;35.20;23.20;;;-4.90;99.90;;;;;;5113809;28;20493;-57
2022/12/18 09:18:59;;;;;;;35.87;22.07;;;-4.90;99.90;;;;;;5113352;28;21014;-57
2022/12/18 09:21:29;;;;;;;37.40;22.90;;;-4.80;99.90;;;;;;5113500;28;20900;-57
2022/12/18 09:23:56;;;;;;;33.97;21.47;;;-4.80;99.90;;;;;;5113412;28;20478;-57
2022/12/18 09:26:26;;;;;;;40.90;20.43;;;-4.70;99.90;;;;;;5113585;28;20482;-57
2022/12/18 09:28:54;;;;;;;39.77;23.43;;;-4.60;99.90;;;;;;5113591;28;20469;-57
2022/12/18 09:31:23;;;;;;;37.93;21.77;;;-4.50;99.90;;;;;;5113640;28;20842;-58
2022/12/18 09:33:50;;;;;;;33.57;20.40;;;-4.40;99.90;;;;;;5113500;28;20538;-58
2022/12/18 09:36:19;;;;;;;44.40;22.50;;;-4.30;99.90;;;;;;5113194;28;20849;-57
2022/12/18 09:38:48;;;;;;;38.83;24.00;;;-4.20;99.90;;;;;;5113298;28;20983;-58
2022/12/18 09:41:34;;;;;;;37.77;24.80;;;-4.10;99.90;;;;;;5113417;28;20463;-58
2022/12/18 09:44:06;;;;;;;37.10;22.67;;;-4.10;99.90;;;;;;5113298;28;20434;-57
2022/12/18 09:46:37;;;;;;;35.30;20.90;;;-4.00;99.90;;;;;;5113373;28;20459;-57
2022/12/18 09:49:08;;;;;;;32.10;22.37;;;-3.90;99.90;;;;;;5113149;28;20509;-58
2022/12/18 09:51:41;;;;;;;39.73;22.47;;;-3.90;99.90;;;;;;5113511;28;20427;-58
2022/12/18 09:54:16;;;;;;;38.40;23.23;;;-3.90;99.90;;;;;;5115589;28;20916;-58
2022/12/18 09:56:45;;;;;;;45.20;23.83;;;-3.70;99.90;;;;;;5117202;28;20957;-58
2022/12/18 09:59:25;;;;;;;41.73;23.03;;;-3.70;99.90;;;;;;5116929;28;20907;-57
2022/12/18 10:01:52;;;;;;;29.20;20.17;;;-3.90;99.90;;;;;;5116699;28;20446;-58
2022/12/18 10:04:20;;;;;;;41.83;24.03;;;-3.90;99.90;;;;;;5116987;28;20503;-57
2022/12/18 10:06:54;;;;;;;32.70;23.20;;;-3.80;99.90;;;;;;5116585;28;20478;-58
2022/12/18 10:09:31;;;;;;;36.77;22.47;;;;;;;;;;5116810;28;20454;-58
2022/12/18 10:12:09;;;;;;;41.37;21.43;;;-3.10;99.90;;;;;;5116661;28;20457;-58
2022/12/18 10:14:46;;;;;;;34.73;20.97;;;-3.30;99.90;;;;;;5116554;28;20559;-58
2022/12/18 10:17:24;;;;;;;40.97;23.33;;;-3.20;99.90;;;;;;5116789;28;20430;-57
2022/12/18 10:19:55;;;;;;;34.37;22.47;;;-3.10;99.90;;;;;;5116203;28;20485;-58
2022/12/18 10:22:43;;;;;;;33.83;21.87;;;-3.10;99.90;;;;;;5116477;28;20427;-57
2022/12/18 10:25:22;;;;;;;34.37;20.10;;;-2.90;99.90;;;;;;5116255;28;20427;-57
2022/12/18 10:27:54;;;;;;;39.47;23.50;;;-2.80;99.90;;;;;;5116476;28;20434;-58
2022/12/18 10:30:23;;;;;;;38.23;23.57;;;-2.60;99.90;;;;;;5115976;28;20463;-57
2022/12/18 10:32:51;;;;;;;37.30;21.23;;;-2.50;99.90;;;;;;5116305;28;20442;-58
2022/12/18 10:35:21;;;;;;;34.10;22.63;;;-2.00;99.90;;;;;;5116324;28;20446;-58
2022/12/18 10:38:03;;;;;;;33.90;21.43;;;-1.00;99.90;;;;;;5116335;28;20459;-58
2022/12/18 10:40:31;;;;;;;38.63;22.50;;;0.20;99.90;;;;;;5115699;28;20560;-58
2022/12/18 10:43:11;;;;;;;36.27;22.27;;;1.50;99.90;;;;;;5115935;28;20944;-59
2022/12/18 10:45:39;;;;;;;42.53;23.30;;;2.20;99.90;;;;;;5115920;28;20423;-58
2022/12/18 10:48:20;;;;;;;33.23;22.60;;;2.80;99.90;;;;;;5116075;28;20850;-59
2022/12/18 10:50:51;;;;;;;34.07;23.47;;;2.70;99.30;;;;;;5115690;28;20469;-59
2022/12/18 10:53:21;;;;;;;30.63;22.47;;;2.20;99.90;;;;;;5115756;28;20456;-58
2022/12/18 10:55:52;;;;;;;36.60;23.30;;;2.90;99.90;;;;;;5115935;28;20927;-58
2022/12/18 10:58:25;;;;;;;32.40;21.03;;;2.60;99.70;;;;;;5115634;28;20997;-58
2022/12/18 11:01:09;;;;;;;32.83;20.73;;;2.70;99.50;;;;;;5115538;28;21035;-59
2022/12/18 11:03:37;;;;;;;30.90;20.70;;;2.60;99.00;;;;;;5115374;28;20466;-58
2022/12/18 11:06:08;;;;;;;33.00;21.30;;;2.00;99.90;;;;;;5115879;28;20439;-59
2022/12/18 11:08:36;;;;;;;31.63;19.57;;;2.10;99.90;;;;;;5115753;28;20454;-58
2022/12/18 11:11:08;;;;;;;35.47;22.00;;;2.70;99.60;;;;;;5115353;28;20498;-59
2022/12/18 11:13:35;;;;;;;30.20;22.03;;;2.80;99.90;;;;;;5115646;28;20881;-58
2022/12/18 11:16:03;;;;;;;33.63;23.77;;;3.00;99.90;;;;;;5115221;28;20537;-58
2022/12/18 11:18:33;;;;;;;36.00;24.83;;;3.10;99.90;;;;;;5115193;28;20477;-58
2022/12/18 11:21:07;;;;;;;32.53;24.97;;;3.40;99.70;;;;;;5114971;28;20489;-58
2022/12/18 11:23:35;;;;;;;31.90;22.87;;;2.70;99.50;;;;;;5115129;28;20427;-58
2022/12/18 11:26:05;;;;;;;33.50;22.40;;;3.20;99.90;;;;;;5114996;28;20537;-58
2022/12/18 11:28:38;;;;;;;34.43;22.40;;;2.60;99.90;;;;;;5115551;28;20849;-58
2022/12/18 11:31:28;;;;;;;35.70;22.10;;;2.70;99.90;;;;;;5115012;28;20494;-57
2022/12/18 11:34:04;;;;;;;37.70;22.50;;;2.20;99.90;;;;;;5115284;28;20430;-57
2022/12/18 11:36:35;;;;;;;33.77;22.00;;;1.90;99.90;;;;;;5115181;28;20495;-58
2022/12/18 11:39:12;;;;;;;30.90;20.50;;;2.20;99.90;;;;;;5114572;28;20884;-57
2022/12/18 11:44:40;;;;;;;31.57;20.90;;;1.60;99.90;;;;;;5114872;28;20905;-57
2022/12/18 11:47:16;;;;;;;34.50;22.10;;;1.70;99.90;;;;;;5114680;28;20897;-59
2022/12/18 11:49:46;;;;;;;28.43;19.20;;;1.40;99.90;;;;;;5114585;28;20462;-57
2022/12/18 11:52:18;;;;;;;31.90;20.17;;;1.00;99.90;;;;;;5114791;28;20427;-57
2022/12/18 11:54:53;;;;;;;34.50;21.30;;;0.70;99.90;;;;;;5114825;28;20462;-58
2022/12/18 11:57:35;;;;;;;29.17;19.17;;;0.40;99.90;;;;;;5114536;28;20546;-58
2022/12/18 12:00:11;;;;;;;31.97;18.03;;;0.20;99.90;;;;;;5114520;28;20505;-58
2022/12/18 12:03:07;;;;;;;31.53;19.57;;;-0.10;99.90;;;;;;5114851;28;20434;-58
2022/12/18 12:05:49;;;;;;;35.60;22.33;;;-0.10;99.90;;;;;;5114339;28;20477;-58
2022/12/18 12:08:27;;;;;;;27.37;17.00;;;-0.20;99.90;;;;;;5114588;28;20455;-58
2022/12/18 12:11:04;;;;;;;26.57;17.80;;;-0.20;99.90;;;;;;5114292;28;20467;-58
2022/12/18 12:13:47;;;;;;;33.00;18.73;;;0.00;99.90;;;;;;5114552;28;20485;-58
2022/12/18 12:16:19;;;;;;;31.43;19.70;;;-0.10;99.90;;;;;;5114111;28;20431;-58
2022/12/18 12:19:02;;;;;;;33.93;21.60;;;-0.30;99.90;;;;;;5114127;28;20437;-58
2022/12/18 12:21:40;;;;;;;33.77;19.60;;;-0.30;99.90;;;;;;5114526;28;20431;-58
2022/12/18 12:24:23;;;;;;;26.00;16.87;;;-0.30;99.90;;;;;;5114110;28;20897;-58
2022/12/18 12:26:58;;;;;;;31.40;19.30;;;-0.30;99.90;;;;;;5114273;28;20474;-58
2022/12/18 12:29:43;;;;;;;29.70;18.30;;;-0.40;99.90;;;;;;5114194;28;20571;-58
2022/12/18 12:32:23;;;;;;;32.77;17.07;;;-0.40;99.90;;;;;;5114254;28;20779;-58
2022/12/18 12:35:03;;;;;;;28.80;18.30;;;-0.50;99.90;;;;;;5113827;28;20794;-58
2022/12/18 12:37:42;;;;;;;31.57;19.10;;;-0.30;99.90;;;;;;5114007;28;20453;-58
2022/12/18 12:40:14;;;;;;;34.10;18.73;;;-0.40;99.90;;;;;;5113414;28;20490;-58
2022/12/18 12:45:42;;;;;;;33.03;19.27;;;-0.50;99.90;;;;;;5113753;28;20406;-58
2022/12/18 12:48:19;;;;;;;26.80;18.10;;;-0.50;99.90;;;;;;5114244;28;20835;-60
2022/12/18 12:50:48;;;;;;;32.83;19.30;;;-0.50;99.90;;;;;;5113885;28;20468;-57
2022/12/18 12:53:24;;;;;;;35.57;20.77;;;-0.30;99.90;;;;;;5114059;28;20446;-57
2022/12/18 12:55:53;;;;;;;30.67;18.23;;;-0.20;99.90;;;;;;5113753;28;20431;-57